Terminal Aerodrome Forecast
Issued by NWS Sterling, VA

Current Version | Previous Version | Text Only | Print | Product List | Glossary Off
Versions: 1 2 3 4 5 6 7 8 9 10 11 12

636
FTUS41 KLWX 221720
TAFMRB
TAF
KMRB 221720Z 2218/2318 VRB03KT P6SM BKN200
     FM230300 VRB03KT P6SM BKN050
     FM230600 VRB03KT 2SM BR SCT008 BKN050
     FM230900 VRB03KT 3/4SM BR SCT008
     FM231400 21008G16KT P6SM SCT050 SCT200=

USA.gov is the U.S. government's official web portal to all federal, state and local government web resources and services.